EDT,Max TemperatureF,Mean TemperatureF,Min TemperatureF,Max Dew PointF,MeanDew PointF,Min DewpointF,Max Humidity, Mean Humidity, Min Humidity, Max Sea Level PressureIn, Mean Sea Level PressureIn, Min Sea Level PressureIn, Max VisibilityMiles, Mean VisibilityMiles, Min VisibilityMiles, Max Wind SpeedMPH, Mean Wind SpeedMPH, Max Gust SpeedMPH,PrecipitationIn, CloudCover, Events, WindDirDegrees
2012-10-1,67,55,42,56,48,41,100,74,48,29.99,29.94,29.92,10,4,0,14,1,20,0.03,4,Fog,123
2012-10-2,66,62,58,63,59,55,100,94,87,29.97,29.94,29.91,9,3,0,7,2,9,0.69,8,Fog-Rain,18
2012-10-3,78,70,62,68,64,61,100,82,64,30.12,30.05,29.96,10,4,0,6,0,8,0.00,3,Fog,203
2012-10-4,78,68,58,67,62,51,100,70,39,30.18,30.14,30.12,10,5,0,14,4,23,0.01,4,Fog-Rain,263
2012-10-5,79,66,53,58,54,50,90,66,42,30.15,30.07,29.94,10,10,10,13,4,16,0.00,1,,202
2012-10-6,71,58,45,57,48,39,93,70,47,30.09,29.94,29.84,10,10,9,25,6,31,0.00,2,,262
2012-10-7,52,46,40,46,41,37,83,71,59,30.19,30.11,30.05,10,10,10,10,3,13,0.02,6,Rain,264
2012-10-8,47,42,36,41,38,34,96,83,70,30.32,30.27,30.20,10,10,7,9,2,12,0.17,5,Rain,327
2012-10-9,61,51,41,48,43,40,100,76,51,30.25,30.17,30.07,10,9,4,6,0,14,0.00,6,,352
2012-10-10,68,54,40,48,42,33,100,71,42,30.11,30.00,29.88,10,6,0,23,7,31,0.00,4,Fog,262
2012-10-11,61,50,39,37,31,28,86,59,32,30.30,30.23,30.13,10,8,2,16,5,18,0.00,1,,293
2012-10-12,59,46,32,38,33,28,96,67,38,30.45,30.27,30.16,10,10,10,22,6,29,0.00,1,,312
2012-10-13,58,44,29,37,31,26,92,66,40,30.53,30.43,30.24,10,10,10,14,3,20,0.00,0,,154
2012-10-14,73,59,44,54,47,40,83,65,46,30.22,30.08,29.88,10,10,10,14,6,17,0.00,3,,167
2012-10-15,69,61,53,61,53,43,87,66,45,29.86,29.76,29.69,10,10,3,25,8,32,0.14,5,Rain,240
2012-10-16,62,51,39,42,38,36,82,61,39,29.95,29.90,29.85,10,10,10,21,8,25,0.00,3,,298
2012-10-17,67,51,35,44,40,33,92,67,42,30.02,29.95,29.90,10,9,5,12,2,15,0.00,0,,175
2012-10-18,67,55,42,58,51,40,96,77,58,29.93,29.86,29.80,10,8,1,20,5,24,0.81,5,Rain,162
2012-10-19,68,59,49,57,54,45,93,81,68,29.83,29.73,29.62,10,8,1,10,3,17,0.01,5,Rain,340
2012-10-20,63,54,45,43,39,35,86,63,39,29.95,29.81,29.70,10,10,10,21,8,25,0.00,2,,264
2012-10-21,63,53,42,41,37,35,82,61,39,30.16,30.08,29.96,10,10,10,17,6,22,0.00,1,,261
2012-10-22,73,55,36,46,41,34,92,64,35,30.22,30.16,30.11,10,9,1,6,1,8,0.00,0,,179
2012-10-23,76,61,46,56,50,44,93,71,49,30.16,30.10,30.04,10,8,2,10,2,13,T,3,,239
2012-10-24,79,66,53,58,53,49,93,65,36,30.14,30.10,30.06,10,9,5,10,2,14,0.00,3,,225
2012-10-25,69,61,52,58,55,51,93,81,68,30.21,30.17,30.12,10,6,3,10,2,13,0.00,4,,94
2012-10-26,66,63,60,58,56,55,90,79,68,30.18,30.13,30.06,10,8,4,7,2,9,0.00,8,,113
2012-10-27,68,64,59,56,53,48,87,70,52,30.04,29.96,29.90,10,10,6,10,4,14,T,8,,47
2012-10-28,59,55,50,53,49,46,93,80,67,29.89,29.77,29.68,10,7,3,17,10,23,0.31,8,Rain,2
2012-10-29,50,47,44,47,43,37,93,85,76,29.66,29.27,28.73,10,4,2,43,20,60,0.78,8,Rain,319
2012-10-30,45,42,38,39,37,35,92,84,76,29.46,29.23,28.72,10,8,4,38,12,48,0.48,8,Rain,207
2012-10-31,48,43,38,37,35,32,92,74,56,29.66,29.55,29.45,10,10,10,25,9,32,0.01,8,Rain,232